Impacts METAR Board
IDs:

KBWI - Baltimore-Washington, MD, US

Updated at: 0200 UTC 23 Sep 2018
Potential Impact None Slight Moderate High
Time 22/14Z 22/15Z 22/16Z 22/17Z 22/18Z 22/19Z 22/20Z 22/21Z 22/22Z 22/23Z 23/00Z 23/01Z 23/02Z
Temp75 77 76 75 75 74 73 70 68 66 64 63 62
Dewpt63 65 61 62 59 59 58 56 54 56 54 53 53
Altim30.10 30.12 30.13 30.14 30.14 30.13 30.14 30.14 30.16 30.17 30.19 30.20 30.20
VIS10 10 10 10 10 10 10 10 10 10 10 10 10
CIG110 180 170 160 110 120 160 100 95 100 120 250 250
CoverBKNBKNBKNBKNBKNBKNBKNBKNBKNBKNBKNBKNBKN
FltCatVFRVFRVFRVFRVFRVFRVFRVFRVFRVFRVFRVFRVFR
WX--------------------------
WDir10103603603601035036035020203050
WSpd8 10 10 5 5 6 6 7 7 7 5 4 4
WGst-- 16 -- -- -- -- -- 15 -- -- -- -- --
Raw hourly METARs
KBWI 221354Z 01008KT 10SM FEW020 BKN110 BKN200 24/17 A3010 RMK AO2 SLP190 T02390172
KBWI 221454Z 01010G16KT 10SM FEW020 BKN180 25/18 A3012 RMK AO2 SLP198 T02500183 53015
KBWI 221554Z 36010KT 10SM FEW020 BKN170 24/16 A3013 RMK AO2 SLP200 T02440161
KBWI 221654Z 36005KT 10SM FEW020 SCT110 BKN160 24/17 A3014 RMK AO2 SLP205 T02390167
KBWI 221754Z 36005KT 10SM FEW020 BKN110 BKN250 24/15 A3014 RMK AO2 SLP205 T02390150 10256 20228 51007
KBWI 221854Z 01006KT 10SM FEW020 BKN120 BKN250 23/15 A3013 RMK AO2 SLP203 T02330150
KBWI 221954Z 35006KT 10SM FEW045 FEW110 SCT130 BKN160 23/14 A3014 RMK AO2 SLP205 T02280144
KBWI 222054Z 36007G15KT 10SM FEW048 BKN100 BKN140 BKN180 BKN250 21/13 A3014 RMK AO2 SLP204 T02110133 56001
KBWI 222154Z 35007KT 10SM FEW048 BKN095 BKN140 BKN180 OVC250 20/12 A3016 RMK AO2 SLP212 VIRGA DSNT NE ACC ALQDS T02000122
KBWI 222254Z 02007KT 10SM BKN100 BKN180 BKN250 19/13 A3017 RMK AO2 SLP215 ACC ALQDS T01890133
KBWI 222354Z 02005KT 10SM SCT100 BKN120 BKN180 BKN250 18/12 A3019 RMK AO2 SLP220 ACC E-SW T01780122 10244 20178 51016
KBWI 230054Z 03004KT 10SM FEW100 SCT160 BKN250 17/12 A3020 RMK AO2 SLP225 T01720117
KBWI 230154Z 05004KT 10SM FEW110 FEW160 BKN250 17/12 A3020 RMK AO2 SLP223 T01670117



Page loaded:  02:14 UTC  |   07:14 PM Pacific  |   08:14 PM Mountain  |   09:14 PM Central  |   10:14 PM Eastern

 

ADVISORIES

FORECASTS

FORECASTS

OBSERVATIONS

USER TOOLS

ABOUT US